AirNav   Everest Fuels
 
 505 users online  

MN24 Surfside Airport
Lino Lakes, Minnesota, USA

GOING TO LINO LAKES?


FAA INFORMATION EFFECTIVE 18 JUNE 2020

Location

FAA Identifier: MN24
Lat/Long: 45-09-42.1800N 093-07-15.0000W
45-09.703000N 093-07.250000W
45.1617167,-93.1208333
(estimated)
Elevation: 890 ft. / 271 m (estimated)
Variation: 03E (1985)
From city: 22 miles SW of LINO LAKES, MN
Time zone: UTC -5 (UTC -6 during Standard Time)
Zip code: 55014

Airport Operations

Airport use: Private use. Permission required prior to landing
Activation date: 02/1961
Control tower: no
ARTCC: MINNEAPOLIS CENTER
FSS: PRINCETON FLIGHT SERVICE STATION
Attendance: MAR-NOV DAYLIGHT HOURS
Wind indicator: yes
Segmented circle: no

Airport Communications

WX AWOS-3 at ANE (4 nm W): 120.625 (763-780-9025)
WX ASOS at MIC (12 nm SW): 125.7 (763-531-2343)
WX ASOS at STP (14 nm S): 118.35 (651-312-8888)
WX AWOS-3 at 21D (15 nm SE): 120.075 (651-779-5949)
WX ASOS at MSP (17 nm S): 135.35 (612-713-4174)
WX AWOS-3 at SGS (19 nm S): 119.425 (651-457-8120)
  • MULTICOM 122.900.

Nearby radio navigation aids

VOR radial/distance  VOR name  Freq  Var
GEPr079/10.7GOPHER VORTAC117.3006E
MSPr015/16.7MINNEAPOLIS VOR/DME115.3002E
FCMr033/24.4FLYING CLOUD VOR/DME117.7001E
FGTr359/32.0FARMINGTON VORTAC115.7006E

 
NDB name  Hdg/Dist  Freq  Var  ID
HOPEY333/18.940003EPPI .--. .--. ..
CAMBRIDGE165/24.535001ECBG -.-. -... --.
PRINCETON137/31.736803EPNM .--. -. --
RUSH CITY190/32.828202EROS .-. --- ...

Airport Services

Fuel available: 100
Parking: buoy
Airframe service: MAJOR
Powerplant service: MAJOR

Runway Information

Runway 2/20

Dimensions: 1900 x 125 ft. / 579 x 38 m
Surface: turf
RUNWAY 2  RUNWAY 20
Latitude: 45-09.581000N45-09.825000N
Longitude: 093-07.388000W093-07.112000W
Elevation: 890.0 ft.890.0 ft.
Traffic pattern: leftleft
Runway heading: 036 magnetic, 039 true216 magnetic, 219 true
Obstructions: none30 ft. trees, 100 ft. from runway

Airport Ownership and Management from official FAA records

Ownership: Privately-owned
Owner: BRUCE R HANSON
6980 LAKE DRIVE
LINO LAKES, MN 55014
Phone 612-780-4179
Manager: CHERI BURGOR
28957 LINDEN AVE
LINDSTROM, MN 55045
Phone 651-334-2987
ADDITIONAL CONTACT: ROBERT TIMM 651-792-4703 612-518-0687(C)

Airport Operational Statistics

Aircraft based on the field: 39
Single engine airplanes: 38
Multi engine airplanes: 1
    

Additional Remarks

FOR CD CTC MINNEAPOLIS ARTCC AT 651-463-5588.

Instrument Procedures

There are no published instrument procedures at MN24.

Some nearby airports with instrument procedures:

KANE - Anoka County-Blaine Airport (Janes Field) (4 nm W)
KMIC - Crystal Airport (12 nm SW)
KSTP - St Paul Downtown Airport Holman Field (14 nm S)
21D - Lake Elmo Airport (15 nm SE)
KMSP - Minneapolis-St Paul International/Wold-Chamberlain Airport (17 nm S)
KSGS - South St Paul Municipal Airport-Richard E Fleming Field (19 nm S)
 
Loc | Ops | Rwys | IFR | FBO | Links
Com | Nav | Svcs | Stats | Notes
Area around MN24 (Surfside Airport)
 
Road maps at: MapQuest Bing Google
 
Aerial photo
No photo
 
Sectional chart

 
Airport distance calculator
Flying to Surfside Airport? Find the distance to fly.

From to MN24

Sunrise and sunset
Times for 13-Jul-2020
 Local
(UTC-5)
 Zulu
(UTC)
Morning civil twilight05:0310:03
Sunrise05:4010:40
Sunset20:5701:57
Evening civil twilight21:3302:33

Current date and time
Zulu (UTC)  13-Jul-2020 05:12:58
Local (UTC-5)  13-Jul-2020 00:12:58
 
METAR
KANE 
4nm SW 
130457Z AUTO 11004KT 10SM CLR 22/16 A2994 RMK AO2
KMIC 
11nm SW 
130453Z AUTO 11004KT 10SM CLR 22/15 A2992 RMK AO2 SLP127 T02220150
KSTP 
14nm S 
130453Z 15008KT 10SM CLR 21/16 A2994 RMK AO2 SLP131 T02110161
K21D 
15nm SE 
130455Z AUTO 00000KT 10SM CLR 18/16 A2996 RMK AO2
KMSP 
17nm S 
130453Z 13006KT 10SM FEW250 23/16 A2993 RMK AO2 SLP131 T02280161
KSGS 
19nm S 
130455Z AUTO 00000KT 10SM CLR 22/16 A2994 RMK AO2 T02170156
TAF
KMSP 
17nm S 
130242Z 1303/1406 15006KT P6SM SCT060 BKN250 FM131800 15014G22KT P6SM SCT050 BKN200
NOTAMs
Click for the latest NOTAMs
NOTAMs are issued by the DoD/FAA and will open in a separate window not controlled by AirNav.

 

 
 

Would you like to see your business listed on this page?

 If your business provides an interesting product or service to pilots, flight crews, aircraft, or users of the Surfside Airport, you should consider listing it here.  To start the listing process, click on the button below
 
Add a business
 

Other Pages about Surfside Airport

Update a link
 
Copyright © AirNav, LLC. All rights reserved. Privacy Policy  Contact